Time;durP1;ratioP1;P1;durP2;ratioP2;P2;SDS_P1;SDS_P2;PMS_P1;PMS_P2;Temp;Humidity;BMP_temperature;BMP_pressure;BME280_temperature;BME280_humidity;BME280_pressure;Samples;Min_cycle;Max_cycle;Signal;HPM_P1;HPM_P2
2022/03/22 00:01:51;;;;;;;64.80;36.30;;;;;;;7.34;85.20;102977.03;5055204;28;20028;-73
2022/03/22 00:04:17;;;;;;;60.78;37.25;;;;;;;7.26;85.47;102969.06;5054309;28;20087;-73
2022/03/22 00:06:43;;;;;;;60.72;35.80;;;;;;;7.30;85.65;102980.41;5054780;28;20383;-73
2022/03/22 00:09:08;;;;;;;62.33;36.38;;;;;;;7.24;86.19;102976.78;5055376;28;20092;-73
2022/03/22 00:11:34;;;;;;;62.38;34.85;;;;;;;7.23;85.85;102980.25;5053715;28;20415;-73
2022/03/22 00:14:00;;;;;;;57.05;35.13;;;;;;;7.23;86.11;102990.63;5054730;28;20036;-73
2022/03/22 00:16:25;;;;;;;56.95;34.40;;;;;;;7.16;85.76;102978.34;5054845;28;20099;-73
2022/03/22 00:18:51;;;;;;;54.53;34.42;;;;;;;7.09;86.11;102971.22;5054040;28;20128;-73
2022/03/22 00:21:18;;;;;;;63.90;35.55;;;;;;;7.15;86.27;102986.06;5054848;28;20025;-73
2022/03/22 00:23:43;;;;;;;55.58;34.55;;;;;;;7.11;86.54;102979.06;5054583;28;20025;-73
2022/03/22 00:26:08;;;;;;;61.90;34.20;;;;;;;7.07;86.62;102978.09;5054053;28;20469;-73
2022/03/22 00:28:34;;;;;;;55.60;34.58;;;;;;;7.03;86.71;102986.66;5054301;28;20099;-73
2022/03/22 00:30:59;;;;;;;58.45;34.88;;;;;;;6.99;87.23;102980.47;5054699;28;20036;-73
2022/03/22 00:33:24;;;;;;;58.58;34.40;;;;;;;6.97;86.93;102989.97;5053759;28;20056;-73
2022/03/22 00:35:50;;;;;;;55.05;32.90;;;;;;;6.96;87.02;102982.13;5054605;28;20567;-73
2022/03/22 00:38:16;;;;;;;58.00;35.05;;;;;;;6.88;87.53;102988.84;5054322;28;20458;-73
2022/03/22 00:40:43;;;;;;;56.30;34.10;;;;;;;6.86;87.67;102991.38;5053499;28;20096;-73
2022/03/22 00:43:09;;;;;;;57.85;34.53;;;;;;;6.85;87.49;103001.72;5054552;28;20112;-73
2022/03/22 00:45:34;;;;;;;58.40;35.55;;;;;;;6.83;87.81;103001.66;5054457;28;20048;-73
2022/03/22 00:48:03;;;;;;;53.17;34.08;;;;;;;6.77;87.80;103001.53;5053665;28;20020;-73
2022/03/22 00:50:33;;;;;;;54.85;33.92;;;;;;;6.70;88.06;103003.09;5054136;28;20021;-73
2022/03/22 00:52:59;;;;;;;56.28;32.97;;;;;;;6.62;88.34;102994.22;5054063;28;20052;-73
2022/03/22 00:55:27;;;;;;;62.22;34.78;;;;;;;6.63;88.11;102995.09;5053215;28;20025;-73
2022/03/22 00:57:53;;;;;;;56.47;34.50;;;;;;;6.63;88.45;102990.78;5054329;28;20101;-73
2022/03/22 01:00:19;;;;;;;60.78;36.38;;;;;;;6.63;88.32;102989.91;5053325;28;20020;-73
2022/03/22 01:02:50;;;;;;;61.28;34.75;;;;;;;6.60;88.49;103001.06;5053659;28;20040;-73
2022/03/22 01:05:19;;;;;;;57.33;33.85;;;;;;;6.57;88.57;103000.97;5054005;28;20033;-73
2022/03/22 01:07:46;;;;;;;59.63;34.05;;;;;;;6.54;88.23;103006.09;5053113;28;20021;-73
2022/03/22 01:10:14;;;;;;;60.95;33.08;;;;;;;6.50;88.45;102997.31;5053826;28;20029;-73
2022/03/22 01:12:41;;;;;;;58.63;33.45;;;;;;;6.45;88.46;103000.66;5053676;28;20033;-73
2022/03/22 01:15:15;;;;;;;56.28;33.53;;;;;;;6.42;88.85;103005.75;5053234;28;20103;-73
2022/03/22 01:17:41;;;;;;;58.70;34.80;;;;;;;6.40;88.55;103010.00;5053612;28;20033;-73
2022/03/22 01:20:10;;;;;;;58.58;32.63;;;;;;;6.39;88.92;103003.06;5053965;28;20036;-73
2022/03/22 01:22:38;;;;;;;59.03;33.53;;;;;;;6.34;88.75;102997.72;5053009;28;20108;-73
2022/03/22 01:25:13;;;;;;;61.72;34.42;;;;;;;6.32;89.07;102999.41;5054000;28;20025;-73
2022/03/22 01:27:40;;;;;;;55.53;32.08;;;;;;;6.29;89.08;103004.50;5053509;28;20025;-73
2022/03/22 01:30:07;;;;;;;54.05;32.75;;;;;;;6.25;89.33;103006.13;5053034;28;20025;-73
2022/03/22 01:32:34;;;;;;;53.33;32.88;;;;;;;6.23;89.51;103012.97;5052975;28;20032;-73
2022/03/22 01:35:00;;;;;;;57.63;32.42;;;;;;;6.20;89.64;103009.41;5053296;28;20025;-73
2022/03/22 01:37:26;;;;;;;54.95;33.17;;;;;;;6.16;90.15;102998.09;5052285;28;20032;-73
2022/03/22 01:39:51;;;;;;;58.15;33.08;;;;;;;6.19;90.20;103010.25;5053412;28;20033;-73
2022/03/22 01:42:16;;;;;;;52.88;32.33;;;;;;;6.16;89.84;103003.28;5053284;28;20473;-73
2022/03/22 01:44:41;;;;;;;54.85;31.10;;;;;;;6.17;89.79;103002.44;5052246;28;20025;-73
2022/03/22 01:47:07;;;;;;;49.05;30.80;;;;;;;6.13;90.10;103002.31;5053465;28;20112;-72
2022/03/22 01:49:33;;;;;;;59.17;32.75;;;;;;;6.10;90.09;103009.16;5052195;28;20036;-73
2022/03/22 01:51:59;;;;;;;53.65;31.50;;;;;;;6.10;90.66;103003.97;5052675;28;20081;-73
2022/03/22 01:54:24;;;;;;;47.63;29.85;;;;;;;6.14;90.28;103012.69;5053081;28;20488;-73
2022/03/22 01:56:50;;;;;;;53.42;29.38;;;;;;;6.14;90.16;103001.47;5052218;28;20029;-73
2022/03/22 01:59:15;;;;;;;52.75;29.63;;;;;;;6.05;90.08;102994.31;5052992;28;20055;-73
2022/03/22 02:07:12;;;;;;;46.85;28.20;;;;;;;6.09;89.95;102997.03;5053088;28;20128;-73
2022/03/22 02:09:37;;;;;;;45.35;29.55;;;;;;;6.05;89.95;102986.56;5052544;28;20468;-73
2022/03/22 02:12:03;;;;;;;42.92;26.17;;;;;;;6.10;89.68;102992.72;5052225;28;20032;-73
2022/03/22 02:14:28;;;;;;;49.50;28.95;;;;;;;6.08;89.95;102994.38;5051806;28;20369;-72
2022/03/22 02:16:54;;;;;;;44.78;26.02;;;;;;;6.06;90.24;102988.31;5052419;28;20032;-72
2022/03/22 02:19:19;;;;;;;47.30;27.15;;;;;;;6.03;90.03;102977.84;5051610;28;20468;-73
2022/03/22 02:21:46;;;;;;;45.90;26.52;;;;;;;6.01;90.08;102992.47;5052520;28;20029;-73
2022/03/22 02:24:11;;;;;;;43.92;24.25;;;;;;;5.99;90.08;102988.97;5052378;28;20025;-73
2022/03/22 02:26:36;;;;;;;43.30;26.10;;;;;;;5.96;90.29;102987.16;5051554;28;20029;-73
2022/03/22 02:29:03;;;;;;;47.10;26.15;;;;;;;5.96;90.08;102988.88;5052680;28;20029;-73
2022/03/22 02:31:30;;;;;;;42.35;25.85;;;;;;;5.92;90.24;102986.97;5051973;28;20064;-73
2022/03/22 02:33:56;;;;;;;44.70;25.75;;;;;;;5.88;90.38;102986.00;5051723;28;20431;-73
2022/03/22 02:36:21;;;;;;;50.42;26.85;;;;;;;5.87;90.23;102992.88;5052179;28;20461;-73
2022/03/22 02:38:47;;;;;;;43.17;24.55;;;;;;;5.84;89.68;102989.34;5051477;28;20389;-73
2022/03/22 02:41:21;;;;;;;43.03;24.98;;;;;;;5.80;90.19;102990.06;5052121;28;20025;-73
2022/03/22 02:43:48;;;;;;;47.85;25.48;;;;;;;5.75;90.06;102987.31;5052078;28;20107;-73
2022/03/22 02:46:14;;;;;;;38.50;24.58;;;;;;;5.76;90.24;102989.09;5051162;28;20082;-73
2022/03/22 02:48:39;;;;;;;43.60;25.08;;;;;;;5.71;90.29;102987.19;5052043;28;20112;-73
2022/03/22 02:51:04;;;;;;;40.88;24.75;;;;;;;5.71;90.65;102992.38;5051896;28;20029;-73
2022/03/22 02:53:30;;;;;;;40.58;23.60;;;;;;;5.68;90.98;102990.56;5050375;28;20040;-73
2022/03/22 02:55:55;;;;;;;44.13;24.92;;;;;;;5.63;90.80;102982.66;5051718;28;20071;-73
2022/03/22 02:58:21;;;;;;;37.47;24.17;;;;;;;5.62;91.09;102987.78;5051508;28;20028;-73
2022/03/22 03:00:46;;;;;;;40.22;25.40;;;;;;;5.61;91.13;102991.22;5050897;28;20094;-73
2022/03/22 03:03:11;;;;;;;42.92;23.58;;;;;;;5.56;91.39;102995.38;5051566;28;20036;-73
2022/03/22 03:05:38;;;;;;;41.05;24.48;;;;;;;5.57;91.33;102997.13;5051724;28;20033;-73
2022/03/22 03:08:07;;;;;;;39.55;23.30;;;;;;;5.53;91.37;102985.81;5051196;28;20025;-73
2022/03/22 03:10:32;;;;;;;40.10;23.20;;;;;;;5.52;91.53;102996.09;5051545;28;20055;-73
2022/03/22 03:13:03;;;;;;;36.88;23.67;;;;;;;5.47;91.14;102987.31;5051474;28;20551;-73
2022/03/22 03:15:29;;;;;;;42.05;24.30;;;;;;;5.43;91.17;102986.34;5050744;28;20079;-72
2022/03/22 03:17:57;;;;;;;38.58;24.88;;;;;;;5.37;91.12;102997.38;5051663;28;20033;-73
2022/03/22 03:20:22;;;;;;;38.72;23.65;;;;;;;5.32;91.40;102998.03;5051233;28;20120;-73
2022/03/22 03:22:48;;;;;;;43.33;24.05;;;;;;;5.29;91.49;103003.97;5050684;28;20107;-72
2022/03/22 03:25:14;;;;;;;39.92;24.25;;;;;;;5.26;91.81;103003.88;5051321;28;20033;-72
2022/03/22 03:27:39;;;;;;;41.30;24.40;;;;;;;5.25;91.88;103007.31;5051091;28;20024;-73
2022/03/22 03:30:06;;;;;;;39.40;24.40;;;;;;;5.21;92.26;102992.53;5050765;28;20036;-73
2022/03/22 03:32:32;;;;;;;37.67;23.67;;;;;;;5.21;92.22;103008.03;5051326;28;20032;-73
2022/03/22 03:34:57;;;;;;;48.05;24.00;;;;;;;5.18;91.92;103005.34;5050662;28;20029;-73
2022/03/22 03:37:24;;;;;;;42.45;23.15;;;;;;;5.15;92.36;102993.19;5051000;28;20086;-72
2022/03/22 03:39:50;;;;;;;45.22;24.95;;;;;;;5.14;92.19;103006.09;5051191;28;20033;-73
2022/03/22 03:42:15;;;;;;;39.28;23.27;;;;;;;5.09;92.22;103003.31;5050341;28;20036;-73
2022/03/22 03:47:24;;;;;;;39.58;24.23;;;;;;;5.05;92.51;103013.53;5051049;28;20056;-73
2022/03/22 03:49:52;;;;;;;38.30;24.23;;;;;;;5.03;92.66;103020.34;5050312;28;20465;-73
2022/03/22 03:52:20;;;;;;;41.75;25.00;;;;;;;4.98;92.44;103008.97;5051072;28;20053;-73
2022/03/22 03:54:46;;;;;;;40.85;24.50;;;;;;;4.97;92.88;103020.13;5050976;28;20032;-73
2022/03/22 03:57:12;;;;;;;39.38;24.23;;;;;;;4.86;92.48;103014.59;5050517;28;20025;-73
2022/03/22 03:59:38;;;;;;;36.50;22.90;;;;;;;4.88;92.54;103021.59;5051163;28;20021;-73
2022/03/22 04:02:06;;;;;;;38.00;23.73;;;;;;;4.89;92.89;103030.22;5051457;28;20079;-73
2022/03/22 04:04:31;;;;;;;42.80;25.10;;;;;;;4.84;92.79;103029.16;5050257;28;20033;-73
2022/03/22 04:06:56;;;;;;;40.05;23.75;;;;;;;4.80;93.07;103027.28;5051015;28;20036;-73
2022/03/22 04:09:22;;;;;;;43.78;23.95;;;;;;;4.75;93.31;103024.56;5050767;28;20035;-73
2022/03/22 04:11:47;;;;;;;39.28;22.63;;;;;;;4.76;93.00;103031.47;5050016;28;20067;-72
2022/03/22 04:14:13;;;;;;;43.20;25.02;;;;;;;4.74;93.07;103035.72;5050867;28;20090;-73
2022/03/22 04:16:39;;;;;;;42.33;25.35;;;;;;;4.73;93.45;103028.78;5050924;28;20501;-72
2022/03/22 04:19:08;;;;;;;42.63;24.40;;;;;;;4.71;93.33;103035.63;5050565;28;20040;-73
2022/03/22 04:21:38;;;;;;;44.38;24.65;;;;;;;4.68;93.44;103033.81;5050901;28;20075;-73
2022/03/22 04:24:08;;;;;;;41.17;24.50;;;;;;;4.66;93.20;103030.28;5050969;28;20024;-73
2022/03/22 04:26:39;;;;;;;42.30;23.98;;;;;;;4.62;93.47;103030.13;5050925;28;20025;-73
2022/03/22 04:34:34;;;;;;;38.30;24.20;;;;;;;4.50;93.58;103021.91;5050971;28;20108;-73
2022/03/22 04:37:00;;;;;;;44.00;23.77;;;;;;;4.51;93.35;103027.13;5050757;28;20028;-73
2022/03/22 04:39:28;;;;;;;44.75;24.77;;;;;;;4.45;93.83;103030.38;5053700;28;20025;-72
2022/03/22 04:41:53;;;;;;;39.97;23.48;;;;;;;4.46;93.86;103026.09;5054372;28;20376;-72
2022/03/22 04:44:19;;;;;;;40.88;24.55;;;;;;;4.44;93.74;103030.31;5054338;28;20502;-73
2022/03/22 04:46:45;;;;;;;43.80;24.25;;;;;;;4.42;94.28;103034.56;5053635;28;20017;-73
2022/03/22 04:49:11;;;;;;;38.45;23.50;;;;;;;4.43;94.26;103033.72;5054251;28;20474;-73
2022/03/22 04:57:04;;;;;;;;;;;;;;;4.42;92.50;103035.44;5055059;28;20098;-73
2022/03/22 04:59:29;;;;;;;39.40;22.60;;;;;;;4.38;93.75;103043.00;5053122;28;20362;-72
2022/03/22 05:01:55;;;;;;;37.35;23.05;;;;;;;4.35;94.09;103046.38;5053977;28;20029;-72
2022/03/22 05:04:20;;;;;;;39.20;23.75;;;;;;;4.34;94.18;103048.88;5053740;28;20025;-73
2022/03/22 05:06:46;;;;;;;44.95;23.90;;;;;;;4.29;94.65;103048.72;5053297;28;20074;-73
2022/03/22 05:09:12;;;;;;;39.60;23.83;;;;;;;4.28;94.30;103052.09;5053900;28;20151;-73
2022/03/22 05:11:37;;;;;;;39.97;23.73;;;;;;;4.27;94.52;103050.34;5053682;28;20111;-72
2022/03/22 05:14:03;;;;;;;43.40;23.90;;;;;;;4.26;94.75;103043.44;5053140;28;20033;-73
2022/03/22 05:16:31;;;;;;;43.72;23.77;;;;;;;4.25;94.22;103056.28;5053519;28;20200;-73
2022/03/22 05:18:57;;;;;;;42.15;23.30;;;;;;;4.25;94.94;103057.19;5053816;28;20040;-73
2022/03/22 05:21:24;;;;;;;41.63;23.42;;;;;;;4.23;95.00;103063.97;5052777;28;20040;-72
2022/03/22 05:23:51;;;;;;;42.65;23.08;;;;;;;4.22;94.90;103068.25;5053586;28;20025;-72
2022/03/22 05:26:17;;;;;;;38.63;24.08;;;;;;;4.16;94.56;103054.25;5053447;28;20036;-73
2022/03/22 05:28:43;;;;;;;39.88;23.23;;;;;;;4.22;94.62;103068.25;5052468;28;20033;-73
2022/03/22 05:31:10;;;;;;;38.85;23.17;;;;;;;4.17;94.77;103062.03;5053801;28;20028;-72
2022/03/22 05:33:38;;;;;;;39.70;23.20;;;;;;;4.18;94.54;103070.66;5053743;28;20025;-73
2022/03/22 05:36:04;;;;;;;43.33;23.58;;;;;;;4.17;94.56;103068.91;5053001;28;20032;-73
2022/03/22 05:38:30;;;;;;;44.80;23.65;;;;;;;4.14;94.47;103073.94;5053188;28;20214;-72
2022/03/22 05:40:56;;;;;;;37.63;22.35;;;;;;;4.14;95.02;103079.97;5053229;28;20430;-72
2022/03/22 05:43:22;;;;;;;45.80;22.85;;;;;;;4.13;94.99;103073.06;5052497;28;20033;-73
2022/03/22 05:45:51;;;;;;;45.78;24.73;;;;;;;4.15;94.93;103075.69;5053239;28;20025;-73
2022/03/22 05:48:20;;;;;;;43.60;23.48;;;;;;;4.16;94.83;103077.47;5052810;28;20376;-73
2022/03/22 05:50:46;;;;;;;42.00;23.77;;;;;;;4.18;95.13;103080.97;5051521;28;20021;-73
2022/03/22 05:53:12;;;;;;;41.10;23.42;;;;;;;4.15;95.04;103070.53;5052705;28;20442;-72
2022/03/22 05:55:38;;;;;;;38.47;23.10;;;;;;;4.14;95.06;103064.50;5052011;28;20599;-72
2022/03/22 05:58:04;;;;;;;39.85;24.02;;;;;;;4.18;95.95;103078.41;5053165;28;20381;-72
2022/03/22 06:00:30;;;;;;;38.53;24.45;;;;;;;4.18;95.88;103074.09;5052939;28;20074;-72
2022/03/22 06:02:56;;;;;;;43.30;24.20;;;;;;;4.23;95.46;103079.47;5052154;28;20029;-73
2022/03/22 06:05:21;;;;;;;45.17;23.80;;;;;;;4.25;95.33;103087.25;5052715;28;20032;-72
2022/03/22 06:07:47;;;;;;;39.65;23.08;;;;;;;4.22;95.19;103080.28;5052628;28;20477;-73
2022/03/22 06:10:12;;;;;;;42.38;24.00;;;;;;;4.27;95.37;103093.38;5051798;28;20033;-73
2022/03/22 06:12:40;;;;;;;40.45;22.98;;;;;;;4.31;95.23;103087.50;5052690;28;20487;-73
2022/03/22 06:15:19;;;;;;;44.90;23.98;;;;;;;4.35;95.13;103089.38;5053021;28;20025;-73
2022/03/22 06:17:46;;;;;;;41.72;23.00;;;;;;;4.38;95.28;103090.38;5051848;28;20025;-73
2022/03/22 06:20:12;;;;;;;43.53;23.40;;;;;;;4.42;95.29;103091.38;5052398;28;20472;-72
2022/03/22 06:22:38;;;;;;;38.38;23.30;;;;;;;4.31;94.91;103059.09;5052228;28;20029;-72
2022/03/22 06:25:03;;;;;;;50.05;23.95;;;;;;;4.54;94.78;103089.22;5052165;28;20100;-72
2022/03/22 06:27:29;;;;;;;57.30;25.42;;;;;;;4.62;94.72;103098.16;5052157;28;20678;-73
2022/03/22 06:29:54;;;;;;;46.92;23.52;;;;;;;4.68;94.21;103094.94;5052519;28;20082;-73
2022/03/22 06:32:19;;;;;;;41.95;23.05;;;;;;;4.74;94.38;103095.16;5051207;28;20496;-73
2022/03/22 06:34:47;;;;;;;47.35;24.25;;;;;;;4.79;94.45;103088.44;5052212;28;20067;-72
2022/03/22 06:37:12;;;;;;;47.72;24.98;;;;;;;4.87;94.05;103102.53;5052155;28;20031;-73
2022/03/22 06:39:37;;;;;;;51.35;25.55;;;;;;;4.96;93.74;103093.34;5051095;28;20111;-72
2022/03/22 06:42:03;;;;;;;45.38;25.17;;;;;;;5.01;93.87;103095.28;5052555;28;20035;-73
2022/03/22 06:44:29;;;;;;;51.95;25.80;;;;;;;5.08;93.52;103092.06;5052039;28;20029;-73
2022/03/22 06:46:55;;;;;;;49.85;25.40;;;;;;;5.21;93.44;103095.09;5051171;28;20490;-72
2022/03/22 06:49:20;;;;;;;51.33;25.80;;;;;;;5.33;93.12;103104.16;5051986;28;20017;-73
2022/03/22 06:51:45;;;;;;;46.38;25.98;;;;;;;5.44;92.85;103111.41;5051595;28;20053;-73
2022/03/22 06:54:12;;;;;;;50.20;25.45;;;;;;;5.47;93.27;103096.84;5051239;28;20013;-72
2022/03/22 06:56:38;;;;;;;49.15;25.60;;;;;;;5.63;92.97;103103.44;5051660;28;20496;-73
2022/03/22 06:59:03;;;;;;;49.72;25.20;;;;;;;5.73;91.88;103100.31;5051510;28;20024;-73
2022/03/22 07:01:28;;;;;;;47.28;27.02;;;;;;;5.83;91.65;103098.91;5051460;28;20633;-72
2022/03/22 07:03:54;;;;;;;47.90;25.65;;;;;;;5.93;91.15;103105.28;5051727;28;20021;-73
2022/03/22 07:06:19;;;;;;;49.65;27.23;;;;;;;6.04;90.90;103101.31;5050703;28;20025;-73
2022/03/22 07:08:44;;;;;;;44.97;27.02;;;;;;;6.17;90.58;103100.84;5051587;28;20024;-73
2022/03/22 07:13:53;;;;;;;45.58;24.50;;;;;;;6.45;88.87;103106.88;5050793;28;20032;-73
2022/03/22 07:16:19;;;;;;;51.10;26.10;;;;;;;6.55;88.40;103107.19;5051672;28;20025;-73
2022/03/22 07:18:44;;;;;;;44.78;25.33;;;;;;;6.67;87.69;103109.28;5051590;28;20090;-73
2022/03/22 07:21:09;;;;;;;42.38;26.55;;;;;;;6.75;86.74;103102.59;5050734;28;20115;-73
2022/03/22 07:23:35;;;;;;;43.42;25.88;;;;;;;6.94;86.08;103105.69;5051719;28;20024;-73
2022/03/22 07:26:01;;;;;;;41.72;24.92;;;;;;;7.03;85.24;103103.38;5051631;28;20477;-73
2022/03/22 07:28:26;;;;;;;46.53;25.52;;;;;;;7.15;84.74;103110.59;5050614;28;20439;-73
2022/03/22 07:30:51;;;;;;;41.58;23.60;;;;;;;7.22;83.99;103104.72;5051376;28;20024;-72
2022/03/22 07:33:16;;;;;;;47.15;25.80;;;;;;;7.39;83.39;103100.88;5051132;28;20048;-73
2022/03/22 07:35:42;;;;;;;45.97;25.23;;;;;;;7.55;82.93;103106.44;5050379;28;20098;-73
2022/03/22 07:38:07;;;;;;;41.60;25.33;;;;;;;7.68;81.96;103103.28;5051826;28;20465;-73
2022/03/22 07:40:32;;;;;;;43.50;25.05;;;;;;;7.80;81.72;103103.59;5051358;28;20100;-73
2022/03/22 07:42:58;;;;;;;44.80;25.30;;;;;;;7.96;81.76;103112.63;5050424;28;20091;-73
2022/03/22 07:45:23;;;;;;;39.78;24.58;;;;;;;8.07;79.63;103097.28;5051215;28;20033;-73
2022/03/22 07:47:49;;;;;;;40.00;23.75;;;;;;;8.21;79.40;103107.16;5051211;28;20037;-73
2022/03/22 07:53:00;;;;;;;40.03;23.92;;;;;;;8.44;77.88;103099.91;5050918;28;20056;-73
2022/03/22 07:55:29;;;;;;;43.78;24.75;;;;;;;8.58;76.75;103101.91;5050365;28;20463;-73
2022/03/22 07:57:57;;;;;;;44.92;25.23;;;;;;;8.71;76.07;103105.66;5051151;28;20105;-73
2022/03/22 08:00:22;;;;;;;41.20;25.38;;;;;;;8.82;75.87;103110.22;5050997;28;20173;-73
2022/03/22 08:02:56;;;;;;;40.50;24.52;;;;;;;8.96;74.36;103115.72;5050304;28;20025;-73
2022/03/22 08:05:23;;;;;;;37.42;24.35;;;;;;;9.09;74.03;103114.19;5051182;28;20090;-73
2022/03/22 08:07:48;;;;;;;37.10;23.52;;;;;;;9.24;73.07;103116.22;5051044;28;20461;-73
2022/03/22 08:10:14;;;;;;;41.33;24.08;;;;;;;9.31;72.49;103105.94;5050291;28;20112;-73
2022/03/22 08:12:40;;;;;;;42.75;24.00;;;;;;;9.41;71.12;103103.50;5051878;28;20040;-73
2022/03/22 08:15:07;;;;;;;46.72;24.08;;;;;;;9.61;71.07;103110.81;5055066;28;20029;-73
2022/03/22 08:17:32;;;;;;;40.22;23.75;;;;;;;9.78;70.20;103115.44;5053978;28;20032;-73
2022/03/22 08:19:58;;;;;;;41.03;23.50;;;;;;;9.92;69.88;103113.91;5054975;28;20025;-73
2022/03/22 08:22:23;;;;;;;39.22;23.88;;;;;;;10.05;69.66;103109.75;5054726;28;20051;-73
2022/03/22 08:24:49;;;;;;;36.20;22.55;;;;;;;10.14;67.62;103111.63;5053931;28;20066;-73
2022/03/22 08:27:14;;;;;;;39.92;23.42;;;;;;;10.30;66.99;103111.91;5054495;28;20025;-73
2022/03/22 08:29:40;;;;;;;38.13;22.70;;;;;;;10.41;65.66;103116.38;5054424;28;20538;-73
2022/03/22 08:32:05;;;;;;;35.42;22.45;;;;;;;10.51;65.80;103111.28;5054034;28;20065;-73
2022/03/22 08:34:30;;;;;;;36.33;22.23;;;;;;;10.63;64.28;103117.53;5054550;28;20033;-73
2022/03/22 08:36:56;;;;;;;37.65;21.38;;;;;;;10.72;63.40;103117.63;5054792;28;20053;-73
2022/03/22 08:39:21;;;;;;;39.85;21.88;;;;;;;10.81;62.81;103111.66;5053670;28;20032;-73
2022/03/22 08:41:47;;;;;;;38.58;21.52;;;;;;;10.92;62.29;103113.56;5054292;28;20033;-73
2022/03/22 08:44:13;;;;;;;38.95;22.10;;;;;;;11.00;62.79;103111.88;5054292;28;20070;-73
2022/03/22 08:46:38;;;;;;;37.88;21.92;;;;;;;11.12;62.25;103112.88;5053324;28;20021;-73
2022/03/22 08:49:04;;;;;;;40.00;22.17;;;;;;;11.25;62.30;103112.16;5054777;28;20365;-73
2022/03/22 08:51:30;;;;;;;39.85;22.17;;;;;;;11.38;61.83;103108.81;5053205;28;20472;-73
2022/03/22 08:53:55;;;;;;;36.50;20.77;;;;;;;11.46;60.60;103101.03;5054242;28;20032;-73
2022/03/22 08:56:22;;;;;;;38.45;21.15;;;;;;;11.53;61.48;103101.94;5054135;28;20477;-73
2022/03/22 08:58:51;;;;;;;36.75;21.70;;;;;;;11.64;58.36;103109.03;5053217;28;20028;-73
2022/03/22 09:01:17;;;;;;;38.60;21.67;;;;;;;11.78;58.11;103109.13;5053899;28;20405;-73
2022/03/22 09:03:42;;;;;;;37.03;20.92;;;;;;;11.86;58.21;103109.22;5054053;28;20511;-73
2022/03/22 09:06:07;;;;;;;39.00;22.30;;;;;;;11.94;56.96;103111.03;5053521;28;20025;-73
2022/03/22 09:08:34;;;;;;;38.45;22.40;;;;;;;12.09;57.06;103109.38;5053697;28;20033;-73
2022/03/22 09:10:59;;;;;;;41.45;23.50;;;;;;;12.19;57.47;103109.41;5053967;28;20028;-73
2022/03/22 09:13:28;;;;;;;39.08;21.58;;;;;;;12.30;56.31;103103.41;5052679;28;20025;-73
2022/03/22 09:15:54;;;;;;;38.33;23.55;;;;;;;12.50;57.00;103108.72;5053586;28;20029;-73
2022/03/22 09:18:24;;;;;;;41.28;23.77;;;;;;;12.58;56.01;103102.66;5053778;28;20406;-73
2022/03/22 09:20:49;;;;;;;38.78;22.67;;;;;;;12.69;56.39;103097.47;5052964;28;20031;-73
2022/03/22 09:23:15;;;;;;;40.58;22.00;;;;;;;12.77;55.28;103108.84;5053448;28;20025;-73
2022/03/22 09:25:43;;;;;;;36.85;22.42;;;;;;;12.84;54.19;103094.88;5053407;28;20791;-73
2022/03/22 09:28:08;;;;;;;40.33;22.73;;;;;;;12.93;53.46;103103.66;5052963;28;20091;-73
2022/03/22 09:30:35;;;;;;;35.58;22.02;;;;;;;13.02;53.27;103096.69;5053531;28;20361;-73
2022/03/22 09:33:02;;;;;;;39.20;22.73;;;;;;;13.13;52.22;103099.31;5053554;28;20033;-73
2022/03/22 09:35:28;;;;;;;39.42;23.25;;;;;;;13.21;51.91;103089.75;5052604;28;20029;-73
2022/03/22 09:37:54;;;;;;;41.42;22.88;;;;;;;13.34;53.39;103091.53;5053413;28;20369;-73
2022/03/22 09:40:20;;;;;;;39.55;23.58;;;;;;;13.42;51.24;103090.66;5053193;28;20025;-73
2022/03/22 09:42:46;;;;;;;38.17;23.52;;;;;;;13.46;51.46;103102.91;5052472;28;20024;-73
2022/03/22 09:45:19;;;;;;;42.53;22.17;;;;;;;13.59;51.66;103097.66;5053301;28;20087;-73
2022/03/22 09:47:45;;;;;;;42.58;22.90;;;;;;;13.73;51.71;103087.19;5052452;28;20499;-73
2022/03/22 09:50:13;;;;;;;41.80;22.75;;;;;;;13.84;49.73;103088.91;5053177;28;20016;-73
2022/03/22 09:52:38;;;;;;;37.33;22.83;;;;;;;13.88;50.33;103090.66;5052641;28;20076;-73
2022/03/22 09:55:06;;;;;;;36.58;22.20;;;;;;;14.02;50.46;103086.25;5052579;28;20099;-73
2022/03/22 09:57:32;;;;;;;39.08;22.05;;;;;;;14.07;49.04;103087.13;5052791;28;20438;-73
2022/03/22 09:59:57;;;;;;;41.35;22.15;;;;;;;14.18;48.30;103092.31;5053085;28;20056;-73
2022/03/22 10:02:31;;;;;;;34.67;21.92;;;;;;;14.28;49.66;103092.28;5051769;28;20071;-73
2022/03/22 10:04:56;;;;;;;40.25;22.85;;;;;;;14.36;49.40;103083.53;5052868;28;20033;-73
2022/03/22 10:07:23;;;;;;;37.88;22.75;;;;;;;14.46;49.06;103090.50;5052630;28;20384;-73
2022/03/22 10:10:00;;;;;;;38.10;23.77;;;;;;;14.58;48.87;103082.56;5051912;28;20025;-73
2022/03/22 10:12:30;;;;;;;39.88;23.00;;;;;;;14.67;47.35;103085.16;5052762;28;20033;-73
2022/03/22 10:15:13;;;;;;;43.65;23.10;;;;;;;14.72;47.15;103083.41;5052892;28;20702;-73
2022/03/22 10:17:39;;;;;;;35.63;23.95;;;;;;;14.89;47.30;103077.19;5051646;28;20033;-73
2022/03/22 10:20:08;;;;;;;43.47;22.50;;;;;;;15.04;45.59;103074.47;5052819;28;20029;-73
2022/03/22 10:22:35;;;;;;;35.90;21.80;;;;;;;15.15;46.05;103069.13;5052213;28;20032;-73
2022/03/22 10:25:03;;;;;;;37.50;21.70;;;;;;;15.26;43.73;103076.94;5051779;28;20023;-73
2022/03/22 10:27:32;;;;;;;34.45;21.88;;;;;;;15.37;43.34;103077.75;5052328;28;20112;-73
2022/03/22 10:29:58;;;;;;;37.70;22.50;;;;;;;15.46;43.65;103068.00;5051608;28;20450;-73
2022/03/22 10:32:32;;;;;;;41.58;23.65;;;;;;;15.50;44.74;103067.97;5052030;28;20041;-73
2022/03/22 10:35:09;;;;;;;37.50;21.40;;;;;;;15.56;44.24;103053.00;5051604;28;20056;-73
2022/03/22 10:37:34;;;;;;;38.08;21.35;;;;;;;15.66;42.45;103052.09;5051385;28;20421;-73
2022/03/22 10:40:00;;;;;;;38.53;22.55;;;;;;;15.75;41.42;103058.13;5052332;28;20028;-73
2022/03/22 10:42:27;;;;;;;41.35;23.45;;;;;;;15.96;42.84;103062.28;5051964;28;20025;-73
2022/03/22 10:44:58;;;;;;;40.90;23.88;;;;;;;16.19;44.61;103062.06;5051238;28;20544;-73
2022/03/22 10:47:26;;;;;;;43.72;24.13;;;;;;;16.34;43.11;103060.09;5051911;28;20103;-73
2022/03/22 10:50:05;;;;;;;42.05;23.13;;;;;;;16.43;43.10;103056.50;5052060;28;20028;-73
2022/03/22 10:52:36;;;;;;;39.55;23.20;;;;;;;16.52;40.92;103061.66;5051031;28;20060;-73
2022/03/22 10:55:01;;;;;;;38.95;21.05;;;;;;;16.61;40.32;103058.91;5052041;28;20024;-74
2022/03/22 10:57:32;;;;;;;33.63;21.08;;;;;;;16.59;40.26;103052.75;5051560;28;20362;-73
2022/03/22 11:00:05;;;;;;;33.88;21.67;;;;;;;16.68;41.54;103057.03;5051034;28;20075;-73
2022/03/22 11:02:35;;;;;;;49.30;23.77;;;;;;;16.67;39.61;103055.28;5051440;28;20119;-74
2022/03/22 11:05:04;;;;;;;34.75;20.10;;;;;;;16.74;40.18;103056.97;5051194;28;20380;-73
2022/03/22 11:07:35;;;;;;;32.33;20.45;;;;;;;16.85;40.25;103062.09;5051373;28;20045;-73
2022/03/22 11:10:01;;;;;;;40.88;22.90;;;;;;;17.03;40.22;103047.78;5051651;28;20021;-74
2022/03/22 11:12:27;;;;;;;36.17;21.25;;;;;;;17.19;39.70;103051.03;5050493;28;20047;-73
2022/03/22 11:14:55;;;;;;;30.67;20.23;;;;;;;17.41;39.82;103057.69;5051678;28;20104;-73
2022/03/22 11:17:22;;;;;;;36.95;21.63;;;;;;;17.54;39.50;103042.53;5051157;28;20025;-73
2022/03/22 11:19:49;;;;;;;31.33;20.05;;;;;;;17.65;38.64;103048.47;5050751;28;20033;-73
2022/03/22 11:22:16;;;;;;;35.33;19.30;;;;;;;17.76;39.52;103050.94;5051343;28;20116;-74
2022/03/22 11:24:42;;;;;;;35.00;21.13;;;;;;;17.81;38.11;103045.59;5051359;28;20032;-74
2022/03/22 11:27:10;;;;;;;33.58;19.48;;;;;;;17.88;39.29;103042.81;5050961;28;20017;-74
2022/03/22 11:29:40;;;;;;;33.45;19.23;;;;;;;17.96;37.90;103043.53;5051664;28;20035;-73
2022/03/22 11:34:58;;;;;;;40.80;20.77;;;;;;;18.08;38.96;103033.63;5050671;28;20125;-74
2022/03/22 11:37:31;;;;;;;34.47;20.80;;;;;;;18.25;39.93;103035.03;5051084;28;20443;-73
2022/03/22 11:42:50;;;;;;;;;;;;;;;18.35;38.90;103027.78;5051867;28;20532;-73